Time;durP1;ratioP1;P1;durP2;ratioP2;P2;SDS_P1;SDS_P2;PMS_P1;PMS_P2;Temp;Humidity;BMP_temperature;BMP_pressure;BME280_temperature;BME280_humidity;BME280_pressure;Samples;Min_cycle;Max_cycle;Signal;HPM_P1;HPM_P2
2022/01/20 00:01:46;;;;;;;4.88;2.78;;;3.00;99.90;;;;;;5008687;28;20040;-50
2022/01/20 00:05:08;;;;;;;3.03;2.72;;;3.00;99.90;;;;;;5014143;28;20052;-51
2022/01/20 00:25:49;;;;;;;3.75;2.17;;;2.90;99.90;;;;;;5012807;28;20605;-51
2022/01/20 00:26:30;;;;;;;3.38;2.92;;;2.90;99.90;;;;;;5014462;28;20371;-50
2022/01/20 00:28:59;;;;;;;3.35;2.40;;;2.90;99.90;;;;;;5007388;28;20578;-50
2022/01/20 00:32:00;;;;;;;4.32;2.50;;;2.90;99.90;;;;;;5016665;28;20061;-50
2022/01/20 00:34:37;;;;;;;3.33;2.40;;;2.90;99.90;;;;;;5015819;28;20037;-50
2022/01/20 00:37:16;;;;;;;2.70;2.25;;;2.90;99.90;;;;;;5016237;28;20044;-50
2022/01/20 00:39:42;;;;;;;2.20;2.05;;;2.90;99.90;;;;;;5022214;28;20030;-50
2022/01/20 00:42:08;;;;;;;2.72;2.53;;;2.90;99.90;;;;;;5026388;28;20087;-51
2022/01/20 00:44:34;;;;;;;3.97;2.55;;;2.90;99.90;;;;;;5027560;28;20418;-51
2022/01/20 00:47:00;;;;;;;2.42;2.22;;;2.90;99.90;;;;;;5021266;28;20080;-50
2022/01/20 00:49:26;;;;;;;3.30;2.30;;;2.90;99.90;;;;;;5015563;28;20033;-50
2022/01/20 00:51:52;;;;;;;3.03;2.40;;;2.90;99.90;;;;;;5011710;28;20487;-50
2022/01/20 00:54:18;;;;;;;3.10;2.42;;;2.90;99.90;;;;;;5014963;28;20032;-50
2022/01/20 00:56:44;;;;;;;3.58;2.15;;;2.90;99.90;;;;;;5014768;28;20466;-52
2022/01/20 00:59:10;;;;;;;1.90;1.77;;;2.90;99.90;;;;;;5012831;28;20029;-51
2022/01/20 01:01:35;;;;;;;2.75;2.55;;;2.90;99.90;;;;;;5014100;28;20057;-52
2022/01/20 01:04:02;;;;;;;2.65;2.25;;;2.90;99.90;;;;;;5014898;28;20158;-49
2022/01/20 01:06:40;;;;;;;3.03;2.25;;;2.90;99.90;;;;;;5015817;28;20661;-52
2022/01/20 01:09:06;;;;;;;4.03;2.50;;;2.90;99.90;;;;;;5015731;28;20116;-52
2022/01/20 01:11:33;;;;;;;3.83;2.25;;;2.90;99.90;;;;;;5011692;28;20369;-50
2022/01/20 01:14:00;;;;;;;4.13;1.80;;;2.90;99.90;;;;;;5014041;28;20765;-50
2022/01/20 01:16:38;;;;;;;2.90;2.35;;;2.90;99.90;;;;;;5012652;28;20116;-50
2022/01/20 01:22:02;;;;;;;3.92;2.35;;;2.90;99.90;;;;;;5010969;28;20115;-50
2022/01/20 01:24:28;;;;;;;2.53;1.85;;;2.90;99.90;;;;;;5010432;28;20399;-51
2022/01/20 01:26:54;;;;;;;5.50;3.15;;;2.90;99.90;;;;;;5012860;28;20030;-50
2022/01/20 01:30:37;;;;;;;3.38;2.00;;;2.90;99.90;;;;;;5013918;28;20505;-50
2022/01/20 01:32:18;;;;;;;2.67;2.15;;;2.90;99.90;;;;;;5004065;28;20042;-51
2022/01/20 01:34:49;;;;;;;2.20;2.00;;;2.90;99.90;;;;;;5012269;28;20615;-50
2022/01/20 01:40:06;;;;;;;1.85;1.67;;;2.90;99.90;;;;;;5006192;28;20041;-51
2022/01/20 01:42:44;;;;;;;2.47;2.28;;;2.90;99.90;;;;;;5006589;28;20044;-51
2022/01/20 01:45:33;;;;;;;3.38;2.28;;;2.90;99.90;;;;;;5004681;28;20521;-49
2022/01/20 01:47:59;;;;;;;2.20;1.95;;;2.90;99.90;;;;;;5010739;28;20490;-50
2022/01/20 01:50:26;;;;;;;2.35;2.15;;;2.90;99.90;;;;;;4998978;28;20030;-53
2022/01/20 01:52:54;;;;;;;2.75;1.98;;;2.80;99.90;;;;;;5008911;28;20049;-50
2022/01/20 01:55:21;;;;;;;6.82;2.58;;;2.90;99.90;;;;;;5013903;28;20391;-50
2022/01/20 01:57:46;;;;;;;2.40;2.03;;;2.80;99.90;;;;;;5012192;28;20550;-51
2022/01/20 02:00:15;;;;;;;2.47;1.80;;;2.80;99.90;;;;;;5011597;28;20037;-50
2022/01/20 02:02:44;;;;;;;3.03;2.30;;;2.80;99.90;;;;;;5011319;28;20704;-51
2022/01/20 02:05:12;;;;;;;;;;;2.80;99.90;;;;;;5010802;28;20025;-51
2022/01/20 02:18:51;;;;;;;2.35;2.15;;;2.80;99.90;;;;;;5013454;28;20040;-50
2022/01/20 02:21:18;;;;;;;3.17;2.45;;;2.80;99.90;;;;;;5010500;28;20583;-50
2022/01/20 02:23:48;;;;;;;3.60;2.40;;;2.80;99.90;;;;;;5009506;28;20042;-50
2022/01/20 02:26:13;;;;;;;5.97;2.58;;;2.70;99.90;;;;;;5010900;28;20038;-50
2022/01/20 02:28:39;;;;;;;2.65;2.28;;;2.70;99.90;;;;;;5010591;28;20040;-50
2022/01/20 02:31:06;;;;;;;3.17;2.45;;;2.70;99.90;;;;;;5018888;28;20577;-51
2022/01/20 02:33:32;;;;;;;4.13;2.72;;;2.70;99.90;;;;;;5009972;28;20464;-52
2022/01/20 02:36:06;;;;;;;3.15;2.33;;;2.70;99.90;;;;;;5011760;28;20402;-50
2022/01/20 02:46:37;;;;;;;4.93;2.40;;;2.60;99.90;;;;;;5009802;28;20056;-51
2022/01/20 02:49:04;;;;;;;5.55;3.20;;;2.60;99.90;;;;;;5012008;28;20025;-51
2022/01/20 02:51:30;;;;;;;3.50;2.33;;;2.60;99.90;;;;;;5012757;28;20017;-51
2022/01/20 02:53:55;;;;;;;3.60;2.88;;;2.60;99.90;;;;;;5011059;28;20091;-51
2022/01/20 02:56:21;;;;;;;4.03;2.08;;;2.60;99.90;;;;;;5011547;28;20040;-51
2022/01/20 02:58:47;;;;;;;3.67;2.63;;;2.60;99.90;;;;;;5008052;28;20056;-51
2022/01/20 03:01:13;;;;;;;3.95;2.53;;;2.60;99.90;;;;;;5008583;28;20040;-51
2022/01/20 03:03:39;;;;;;;3.13;2.42;;;2.60;99.90;;;;;;5007773;28;20084;-51
2022/01/20 03:06:05;;;;;;;3.17;2.20;;;2.50;99.90;;;;;;5011528;28;20108;-52
2022/01/20 03:08:30;;;;;;;3.42;2.45;;;2.50;99.90;;;;;;5008987;28;20032;-51
2022/01/20 03:10:56;;;;;;;2.75;2.25;;;2.50;99.90;;;;;;5010668;28;20079;-50
2022/01/20 03:13:22;;;;;;;5.57;2.70;;;2.50;99.90;;;;;;5012471;28;20482;-50
2022/01/20 03:15:48;;;;;;;4.90;2.80;;;2.50;99.90;;;;;;5013659;28;20586;-50
2022/01/20 03:18:14;;;;;;;3.08;2.60;;;2.50;99.90;;;;;;5010038;28;20065;-49
2022/01/20 03:20:40;;;;;;;6.90;3.00;;;2.40;99.90;;;;;;5014965;28;20033;-51
2022/01/20 03:23:05;;;;;;;3.97;3.28;;;2.30;99.90;;;;;;5014055;28;20487;-51
2022/01/20 03:25:31;;;;;;;4.25;3.20;;;2.20;99.90;;;;;;5018784;28;20033;-50
2022/01/20 03:27:57;;;;;;;2.95;2.70;;;2.20;99.90;;;;;;5017460;28;20086;-50
2022/01/20 03:30:25;;;;;;;3.95;2.67;;;2.10;99.90;;;;;;5012118;28;20029;-50
2022/01/20 03:32:51;;;;;;;3.73;2.50;;;2.10;99.90;;;;;;5006568;28;20034;-50
2022/01/20 03:35:17;;;;;;;3.30;2.72;;;2.10;99.90;;;;;;5005752;28;20041;-50
2022/01/20 03:37:43;;;;;;;4.38;3.25;;;2.00;99.90;;;;;;5004830;28;20034;-50
2022/01/20 03:40:10;;;;;;;3.92;2.75;;;2.00;99.90;;;;;;5035329;28;20056;-50
2022/01/20 03:42:36;;;;;;;4.60;3.00;;;2.00;99.90;;;;;;5004763;28;20400;-51
2022/01/20 03:45:03;;;;;;;3.92;2.40;;;2.00;99.90;;;;;;5004796;28;20349;-50
2022/01/20 03:47:29;;;;;;;4.03;2.67;;;2.00;99.90;;;;;;5005317;28;20030;-50
2022/01/20 03:50:08;;;;;;;4.65;3.35;;;1.90;99.90;;;;;;5006903;28;20026;-50
2022/01/20 03:52:33;;;;;;;3.90;2.85;;;1.90;99.90;;;;;;5012520;28;20408;-50
2022/01/20 03:54:59;;;;;;;6.93;3.10;;;2.00;99.90;;;;;;5006797;28;20022;-50
2022/01/20 03:57:26;;;;;;;6.18;3.22;;;1.90;99.90;;;;;;5008212;28;20084;-52
2022/01/20 03:59:51;;;;;;;4.68;3.28;;;1.90;99.90;;;;;;5009000;28;20092;-50
2022/01/20 04:02:18;;;;;;;4.28;2.97;;;1.90;99.90;;;;;;5009138;28;20034;-51
2022/01/20 04:04:43;;;;;;;3.92;2.97;;;1.90;99.90;;;;;;5006014;28;20111;-50
2022/01/20 04:07:09;;;;;;;3.60;2.65;;;1.80;99.90;;;;;;5010665;28;20033;-50
2022/01/20 04:09:35;;;;;;;4.40;3.28;;;1.90;99.90;;;;;;5007540;28;20727;-50
2022/01/20 04:12:00;;;;;;;3.63;2.97;;;1.80;99.90;;;;;;5004897;28;20034;-50
2022/01/20 04:14:29;;;;;;;5.15;2.97;;;1.80;99.90;;;;;;5005076;28;20119;-51
2022/01/20 04:19:20;;;;;;;2.95;2.65;;;1.80;99.90;;;;;;5006817;28;20045;-50
2022/01/20 04:21:46;;;;;;;3.45;2.75;;;1.80;99.90;;;;;;5005783;28;20033;-51
2022/01/20 04:24:12;;;;;;;4.50;3.03;;;1.80;99.90;;;;;;5009371;28;20415;-50
2022/01/20 04:26:40;;;;;;;4.03;2.97;;;1.80;99.90;;;;;;5003346;28;20458;-50
2022/01/20 04:29:07;;;;;;;5.38;3.67;;;1.80;99.90;;;;;;5034117;28;20028;-50
2022/01/20 04:31:35;;;;;;;3.65;3.05;;;1.80;99.90;;;;;;5005344;28;20061;-50
2022/01/20 04:34:02;;;;;;;6.05;2.75;;;1.70;99.90;;;;;;5005800;28;20037;-52
2022/01/20 04:36:34;;;;;;;4.60;3.33;;;1.70;99.90;;;;;;5005664;28;20694;-54
2022/01/20 04:39:01;;;;;;;4.72;3.20;;;1.70;99.90;;;;;;5004740;28;20095;-51
2022/01/20 04:41:29;;;;;;;4.93;3.15;;;1.70;99.90;;;;;;5007604;28;20108;-49
2022/01/20 04:43:59;;;;;;;3.33;3.03;;;1.70;99.90;;;;;;5005637;28;20496;-52
2022/01/20 04:46:35;;;;;;;4.10;3.22;;;1.70;99.90;;;;;;5003528;28;20037;-50
2022/01/20 04:57:17;;;;;;;4.05;3.63;;;1.70;99.90;;;;;;5006099;28;20083;-50
2022/01/20 04:59:47;;;;;;;6.32;3.60;;;1.70;99.90;;;;;;5006876;28;20040;-50
2022/01/20 05:02:13;;;;;;;6.82;3.47;;;1.70;99.90;;;;;;5002900;28;20049;-50
2022/01/20 05:04:39;;;;;;;2.63;2.33;;;1.70;99.90;;;;;;5003855;28;20034;-50
2022/01/20 05:07:07;;;;;;;4.05;3.05;;;1.70;99.90;;;;;;5005770;28;20040;-49
2022/01/20 05:09:33;;;;;;;5.50;3.35;;;1.70;99.90;;;;;;5005597;28;20560;-49
2022/01/20 05:12:06;;;;;;;3.45;2.92;;;1.70;99.90;;;;;;5005211;28;20026;-50
2022/01/20 05:14:31;;;;;;;5.47;3.30;;;1.70;99.90;;;;;;5003406;28;20038;-50
2022/01/20 05:16:58;;;;;;;4.90;3.15;;;1.70;99.90;;;;;;5004481;28;20033;-50
2022/01/20 05:19:27;;;;;;;5.75;3.08;;;1.70;99.90;;;;;;5004923;28;20047;-51
2022/01/20 05:21:53;;;;;;;4.22;3.00;;;1.70;99.90;;;;;;5004829;28;20141;-51
2022/01/20 05:24:22;;;;;;;4.10;2.88;;;1.70;99.90;;;;;;5006910;28;22141;-50
2022/01/20 05:26:50;;;;;;;2.95;2.70;;;1.60;99.90;;;;;;5007216;28;20839;-51
2022/01/20 05:29:16;;;;;;;6.25;2.65;;;1.70;99.90;;;;;;5003985;28;20033;-50
2022/01/20 05:31:41;;;;;;;5.60;3.55;;;1.70;99.90;;;;;;5004862;28;20040;-50
2022/01/20 05:34:07;;;;;;;3.92;3.10;;;1.70;99.90;;;;;;5003128;28;20026;-50
2022/01/20 05:36:33;;;;;;;4.13;3.28;;;1.70;99.90;;;;;;5004300;28;20410;-50
2022/01/20 05:38:58;;;;;;;5.78;3.40;;;1.70;99.90;;;;;;5003563;28;20052;-50
2022/01/20 05:41:24;;;;;;;4.20;3.00;;;1.70;99.90;;;;;;5004369;28;20155;-50
2022/01/20 05:43:50;;;;;;;4.13;3.22;;;1.70;99.90;;;;;;5033478;28;20030;-50
2022/01/20 05:46:17;;;;;;;7.50;3.65;;;1.70;99.90;;;;;;5003380;28;20029;-51
2022/01/20 05:48:47;;;;;;;4.03;3.53;;;1.70;99.90;;;;;;5004329;28;20022;-50
2022/01/20 05:51:14;;;;;;;5.40;3.70;;;1.70;99.90;;;;;;5003700;28;20892;-50
2022/01/20 05:53:39;;;;;;;4.78;3.33;;;1.80;99.90;;;;;;5006207;28;20033;-52
2022/01/20 05:56:05;;;;;;;6.03;3.38;;;1.70;99.90;;;;;;5003758;28;20457;-51
2022/01/20 05:58:33;;;;;;;3.97;2.90;;;1.70;99.90;;;;;;5003926;28;20041;-50
2022/01/20 06:00:59;;;;;;;3.67;3.30;;;1.70;99.90;;;;;;5006350;28;20426;-50
2022/01/20 06:03:37;;;;;;;4.20;3.42;;;1.70;99.90;;;;;;5003785;28;20037;-52
2022/01/20 06:06:12;;;;;;;5.78;3.30;;;1.70;99.90;;;;;;5001806;28;20021;-50
2022/01/20 06:08:41;;;;;;;6.00;3.22;;;1.70;99.90;;;;;;5003218;28;20506;-50
2022/01/20 06:11:07;;;;;;;3.22;2.60;;;1.70;99.90;;;;;;5036113;28;20030;-50
2022/01/20 06:13:33;;;;;;;4.03;2.75;;;1.70;99.90;;;;;;5007971;28;20044;-50
2022/01/20 06:16:00;;;;;;;3.47;2.83;;;1.70;99.90;;;;;;5003952;28;20033;-49
2022/01/20 06:18:26;;;;;;;4.28;3.40;;;1.70;99.90;;;;;;5003698;28;20084;-51
2022/01/20 06:20:52;;;;;;;5.43;3.53;;;1.80;99.90;;;;;;5005169;28;20033;-51
2022/01/20 06:23:18;;;;;;;3.22;3.00;;;1.70;99.90;;;;;;5003076;28;20112;-50
2022/01/20 06:25:44;;;;;;;3.60;2.55;;;1.70;99.90;;;;;;5003664;28;20034;-51
2022/01/20 06:28:11;;;;;;;2.63;2.38;;;1.70;99.90;;;;;;5004175;28;20084;-51
2022/01/20 06:30:37;;;;;;;5.30;3.70;;;1.70;99.90;;;;;;5005083;28;20035;-51
2022/01/20 06:33:03;;;;;;;3.83;2.80;;;1.70;99.90;;;;;;5008123;28;20029;-51
2022/01/20 06:35:30;;;;;;;4.43;3.30;;;1.70;99.90;;;;;;5002405;28;20043;-50
2022/01/20 06:37:56;;;;;;;3.60;3.25;;;1.70;99.90;;;;;;5001898;28;20494;-50
2022/01/20 06:40:22;;;;;;;4.97;3.20;;;1.80;99.90;;;;;;5003624;28;20041;-51
2022/01/20 06:42:48;;;;;;;4.45;3.55;;;1.80;99.90;;;;;;5001438;28;20091;-50
2022/01/20 06:45:15;;;;;;;4.53;3.33;;;1.80;99.90;;;;;;4999607;28;20765;-50
2022/01/20 06:47:41;;;;;;;5.18;3.78;;;1.80;99.90;;;;;;5001959;28;20033;-51
2022/01/20 06:50:10;;;;;;;4.55;3.50;;;1.80;99.90;;;;;;5007373;28;20021;-50
2022/01/20 06:52:35;;;;;;;;;;;1.80;99.90;;;;;;5009623;28;20033;-51
2022/01/20 06:55:07;;;;;;;4.38;3.03;;;1.80;99.90;;;;;;5001522;28;19925;-50
2022/01/20 06:57:34;;;;;;;3.67;3.08;;;1.80;99.90;;;;;;5002816;28;20033;-50
2022/01/20 06:59:59;;;;;;;2.55;2.35;;;1.80;99.90;;;;;;5006977;28;20026;-51
2022/01/20 07:02:25;;;;;;;4.75;3.53;;;1.80;99.90;;;;;;5002734;28;20045;-50
2022/01/20 07:04:51;;;;;;;4.07;3.38;;;1.80;99.90;;;;;;5005227;28;20037;-50
2022/01/20 07:07:17;;;;;;;4.85;3.10;;;1.80;99.90;;;;;;5003775;28;20041;-50
2022/01/20 07:09:44;;;;;;;3.03;2.67;;;1.80;99.90;;;;;;5002309;28;20034;-50
2022/01/20 07:12:10;;;;;;;3.78;2.63;;;1.80;99.90;;;;;;5003142;28;20040;-51
2022/01/20 07:14:36;;;;;;;4.43;2.97;;;1.80;99.90;;;;;;5000965;28;20040;-50
2022/01/20 07:17:02;;;;;;;3.95;3.00;;;1.80;99.90;;;;;;5012578;28;20037;-51
2022/01/20 07:19:27;;;;;;;3.72;2.80;;;1.80;99.90;;;;;;5002613;28;20057;-51
2022/01/20 07:21:53;;;;;;;3.03;2.50;;;1.80;99.90;;;;;;5008587;28;20153;-50
2022/01/20 07:24:19;;;;;;;4.18;3.13;;;1.80;99.90;;;;;;5008903;28;20517;-50
2022/01/20 07:26:44;;;;;;;2.92;2.67;;;1.80;99.90;;;;;;5004143;28;20034;-49
2022/01/20 07:29:10;;;;;;;4.65;2.88;;;1.80;99.90;;;;;;5005782;28;20033;-50
2022/01/20 07:31:36;;;;;;;4.38;3.13;;;1.90;99.90;;;;;;5001538;28;20038;-50
2022/01/20 07:34:02;;;;;;;3.03;2.60;;;1.80;99.90;;;;;;5001844;28;20039;-50
2022/01/20 07:36:28;;;;;;;2.92;2.60;;;1.90;99.90;;;;;;5004337;28;20498;-50
2022/01/20 07:38:53;;;;;;;3.95;3.28;;;1.90;99.90;;;;;;5005803;28;20068;-50
2022/01/20 07:41:19;;;;;;;3.75;2.50;;;1.90;99.90;;;;;;5005226;28;20049;-50
2022/01/20 07:43:45;;;;;;;3.22;2.92;;;1.90;99.90;;;;;;5005226;28;20497;-50
2022/01/20 07:46:11;;;;;;;2.78;2.58;;;1.80;99.90;;;;;;5003614;28;20029;-49
2022/01/20 07:48:36;;;;;;;5.63;2.88;;;1.90;99.90;;;;;;5004886;28;20196;-50
2022/01/20 07:51:05;;;;;;;2.75;2.53;;;1.80;99.90;;;;;;5004573;28;20034;-49
2022/01/20 07:53:34;;;;;;;3.30;3.00;;;1.90;99.90;;;;;;5002710;28;20124;-51
2022/01/20 07:56:00;;;;;;;4.22;2.95;;;1.80;99.90;;;;;;5007258;28;20041;-50
2022/01/20 07:58:25;;;;;;;3.25;2.95;;;1.80;99.90;;;;;;5001335;28;20513;-50
2022/01/20 08:00:51;;;;;;;4.03;3.67;;;1.80;99.90;;;;;;5005720;28;20120;-51
2022/01/20 08:03:17;;;;;;;4.07;3.25;;;1.90;99.90;;;;;;5002515;28;20643;-50
2022/01/20 08:05:43;;;;;;;3.22;2.50;;;1.90;99.90;;;;;;5003601;28;20516;-50
2022/01/20 08:08:08;;;;;;;3.13;2.40;;;1.90;99.90;;;;;;5012270;28;20485;-50
2022/01/20 08:10:35;;;;;;;2.95;2.58;;;1.90;99.90;;;;;;5018690;28;20036;-51
2022/01/20 08:13:04;;;;;;;3.25;2.53;;;1.90;99.90;;;;;;5015257;28;20726;-51
2022/01/20 08:15:30;;;;;;;2.78;2.58;;;1.90;99.90;;;;;;5016873;28;20030;-51
2022/01/20 08:17:56;;;;;;;3.65;2.72;;;1.90;99.90;;;;;;5015106;28;20112;-53
2022/01/20 08:20:21;;;;;;;3.50;2.80;;;1.90;99.90;;;;;;5020535;28;20029;-52
2022/01/20 08:22:47;;;;;;;3.03;2.72;;;1.90;99.90;;;;;;5017733;28;20051;-51
2022/01/20 08:25:16;;;;;;;2.45;2.05;;;1.90;99.90;;;;;;5014842;28;20475;-51
2022/01/20 08:27:42;;;;;;;;;;;2.00;99.90;;;;;;5018647;28;20029;-51
2022/01/20 08:30:11;;;;;;;2.97;2.53;;;2.00;99.90;;;;;;5017487;28;19967;-50
2022/01/20 08:32:37;;;;;;;4.38;2.20;;;2.00;99.90;;;;;;5011848;28;20152;-51
2022/01/20 08:35:06;;;;;;;3.15;2.80;;;2.00;99.90;;;;;;5015305;28;20498;-51
2022/01/20 08:37:37;;;;;;;3.85;2.92;;;2.00;99.90;;;;;;5021708;28;20605;-50
2022/01/20 08:40:13;;;;;;;4.25;3.35;;;2.00;99.90;;;;;;5020890;28;20038;-50
2022/01/20 08:42:40;;;;;;;2.85;2.60;;;2.00;99.90;;;;;;5023830;28;20057;-50
2022/01/20 08:45:07;;;;;;;3.72;2.92;;;2.10;99.90;;;;;;5017768;28;20034;-50
2022/01/20 08:47:33;;;;;;;3.80;3.25;;;2.10;99.90;;;;;;5016804;28;20040;-51
2022/01/20 08:49:59;;;;;;;2.67;2.20;;;2.10;99.90;;;;;;5017437;28;20021;-50
2022/01/20 08:52:28;;;;;;;3.38;2.42;;;2.10;99.90;;;;;;5014387;28;21146;-51
2022/01/20 08:54:56;;;;;;;4.85;2.53;;;2.10;99.90;;;;;;5016104;28;20053;-50
2022/01/20 08:57:22;;;;;;;3.97;2.55;;;2.10;99.90;;;;;;5020216;28;20573;-50
2022/01/20 08:59:48;;;;;;;3.05;2.47;;;2.10;99.90;;;;;;5021756;28;20041;-52
2022/01/20 09:02:13;;;;;;;13.52;2.90;;;2.10;99.90;;;;;;5018118;28;20053;-50
2022/01/20 09:04:40;;;;;;;3.80;2.35;;;2.20;99.90;;;;;;5017762;28;20037;-51
2022/01/20 09:07:05;;;;;;;3.28;2.63;;;2.20;99.90;;;;;;5010808;28;20486;-51
2022/01/20 09:09:34;;;;;;;3.45;3.00;;;2.20;99.90;;;;;;5006549;28;20060;-51
2022/01/20 09:12:15;;;;;;;;;;;2.20;99.90;;;;;;5007780;28;20037;-51
2022/01/20 09:17:28;;;;;;;2.45;2.25;;;2.30;99.90;;;;;;5005410;28;20080;-52
2022/01/20 09:19:55;;;;;;;2.10;1.92;;;2.30;99.90;;;;;;5003630;28;20033;-51
2022/01/20 09:22:21;;;;;;;4.50;2.55;;;2.40;99.90;;;;;;5004542;28;20030;-51
2022/01/20 09:24:47;;;;;;;3.97;2.70;;;2.40;99.90;;;;;;5004485;28;20030;-52
2022/01/20 09:27:14;;;;;;;3.10;2.60;;;2.40;99.90;;;;;;5004711;28;20041;-51
2022/01/20 09:29:41;;;;;;;4.15;2.80;;;2.40;99.90;;;;;;5004435;28;20501;-51
2022/01/20 09:32:09;;;;;;;5.20;2.85;;;2.40;99.90;;;;;;5031498;28;20960;-51
2022/01/20 09:34:35;;;;;;;;;;;2.40;99.90;;;;;;5002623;28;20042;-51
2022/01/20 09:37:01;;;;;;;3.08;2.22;;;2.40;99.90;;;;;;5005722;28;20708;-51
2022/01/20 09:39:26;;;;;;;3.33;3.08;;;2.40;99.90;;;;;;5013836;28;20053;-51
2022/01/20 09:41:52;;;;;;;2.67;2.45;;;2.40;99.90;;;;;;5014162;28;20504;-52
2022/01/20 09:44:18;;;;;;;3.50;3.05;;;2.40;99.90;;;;;;5016848;28;20041;-51
2022/01/20 09:46:45;;;;;;;2.92;2.72;;;2.40;99.90;;;;;;5012328;28;20065;-51
2022/01/20 09:49:11;;;;;;;2.67;2.40;;;2.40;99.90;;;;;;5011592;28;20037;-51
2022/01/20 09:51:38;;;;;;;5.97;3.00;;;2.50;99.90;;;;;;5011354;28;20048;-51
2022/01/20 09:54:05;;;;;;;3.42;2.80;;;2.50;99.90;;;;;;5015698;28;20041;-53
2022/01/20 09:56:31;;;;;;;3.75;2.53;;;2.50;99.90;;;;;;5013810;28;20029;-50
2022/01/20 09:58:57;;;;;;;5.65;2.92;;;2.50;99.90;;;;;;5013223;28;20021;-50
2022/01/20 10:01:40;;;;;;;2.67;2.47;;;2.60;99.90;;;;;;5013306;28;20048;-51
2022/01/20 10:04:16;;;;;;;3.53;3.03;;;2.70;99.90;;;;;;5014879;28;20061;-51
2022/01/20 10:07:01;;;;;;;4.57;3.40;;;2.70;99.90;;;;;;5012926;28;20176;-51
2022/01/20 10:09:38;;;;;;;12.50;3.60;;;2.80;99.90;;;;;;5012876;28;20363;-51
2022/01/20 10:12:06;;;;;;;3.05;2.70;;;2.80;99.90;;;;;;5005878;28;20072;-51
2022/01/20 10:14:58;;;;;;;4.13;3.05;;;2.90;99.90;;;;;;5006124;28;20026;-51
2022/01/20 10:17:28;;;;;;;6.57;3.20;;;2.90;99.90;;;;;;5008013;28;20050;-51
2022/01/20 10:20:03;;;;;;;6.85;2.90;;;2.90;99.90;;;;;;5009664;28;20527;-52
2022/01/20 10:22:30;;;;;;;2.55;2.15;;;2.90;99.90;;;;;;5012566;28;20542;-50
2022/01/20 10:25:11;;;;;;;5.60;3.78;;;3.00;99.90;;;;;;5012116;28;20228;-50
2022/01/20 10:27:50;;;;;;;3.78;2.85;;;3.00;99.90;;;;;;5011949;28;20748;-50
2022/01/20 10:30:16;;;;;;;3.83;2.47;;;3.10;99.90;;;;;;5005409;28;20044;-51
2022/01/20 10:32:51;;;;;;;3.05;2.35;;;3.10;99.90;;;;;;5008585;28;20030;-50
2022/01/20 10:35:23;;;;;;;3.80;2.60;;;3.20;99.90;;;;;;5011206;28;20156;-51
2022/01/20 10:38:00;;;;;;;2.63;2.42;;;3.20;99.90;;;;;;5017872;28;20030;-52
2022/01/20 10:40:26;;;;;;;4.13;2.28;;;3.30;99.90;;;;;;5001159;28;20045;-51
2022/01/20 10:42:53;;;;;;;4.10;2.60;;;3.20;99.90;;;;;;4997201;28;20033;-51
2022/01/20 10:45:22;;;;;;;2.50;1.95;;;3.20;99.90;;;;;;5005327;28;20037;-50
2022/01/20 10:47:51;;;;;;;3.55;2.75;;;3.30;99.90;;;;;;5002965;28;20115;-51
2022/01/20 10:50:22;;;;;;;5.63;2.60;;;3.20;99.90;;;;;;5001662;28;20025;-51
2022/01/20 10:52:49;;;;;;;3.28;2.67;;;3.20;99.90;;;;;;5000400;28;20458;-51
2022/01/20 10:55:18;;;;;;;3.92;2.78;;;3.30;99.90;;;;;;5001799;28;20037;-52
2022/01/20 10:57:44;;;;;;;3.17;2.28;;;3.20;99.90;;;;;;4999518;28;20041;-51
2022/01/20 11:00:16;;;;;;;2.50;2.30;;;3.20;99.90;;;;;;4998768;28;20072;-51
2022/01/20 11:02:41;;;;;;;3.25;2.30;;;3.20;99.90;;;;;;4997250;28;20052;-51
2022/01/20 11:05:07;;;;;;;5.38;2.22;;;3.20;99.90;;;;;;4998772;28;20029;-52
2022/01/20 11:07:35;;;;;;;3.15;2.08;;;3.20;99.90;;;;;;4997921;28;20025;-51
2022/01/20 11:10:04;;;;;;;3.30;2.53;;;3.10;99.90;;;;;;4998284;28;20029;-52
2022/01/20 11:12:30;;;;;;;2.25;1.70;;;3.10;99.90;;;;;;4998454;28;21275;-50
2022/01/20 11:14:57;;;;;;;4.43;2.22;;;3.10;99.90;;;;;;4997387;28;20131;-50
2022/01/20 11:17:26;;;;;;;3.85;2.80;;;3.10;99.90;;;;;;5000244;28;21585;-50
2022/01/20 11:19:52;;;;;;;4.45;2.35;;;3.20;99.90;;;;;;4999438;28;20120;-50
2022/01/20 11:22:19;;;;;;;3.50;2.08;;;3.30;99.90;;;;;;4997789;28;20120;-50
2022/01/20 11:25:00;;;;;;;2.22;2.03;;;3.30;99.90;;;;;;4997789;28;20529;-51
2022/01/20 11:27:40;;;;;;;3.17;2.05;;;3.30;99.90;;;;;;5007522;28;20029;-49
2022/01/20 11:30:21;;;;;;;2.65;2.05;;;3.30;99.90;;;;;;4999156;28;20952;-50
2022/01/20 11:33:05;;;;;;;2.45;2.25;;;3.30;99.90;;;;;;4998851;28;20034;-50
2022/01/20 11:35:46;;;;;;;4.63;1.95;;;3.30;99.90;;;;;;4999248;28;20747;-50
2022/01/20 11:38:15;;;;;;;5.00;2.15;;;3.30;99.90;;;;;;5029478;28;20041;-50
2022/01/20 11:40:50;;;;;;;3.33;1.95;;;3.30;99.90;;;;;;5006185;28;20053;-51
2022/01/20 11:43:16;;;;;;;3.47;2.22;;;3.30;99.90;;;;;;5009910;28;20516;-50
2022/01/20 11:45:50;;;;;;;3.47;2.13;;;3.20;99.90;;;;;;5019744;28;20140;-51
2022/01/20 11:48:15;;;;;;;5.20;3.22;;;3.20;99.90;;;;;;5013859;28;22357;-50
2022/01/20 11:50:43;;;;;;;3.28;1.70;;;3.20;99.90;;;;;;5011953;28;20097;-50
2022/01/20 11:53:14;;;;;;;3.83;2.15;;;3.20;99.90;;;;;;5020082;28;20030;-49
2022/01/20 11:55:52;;;;;;;5.30;1.75;;;3.20;99.90;;;;;;5021064;28;20055;-50
2022/01/20 11:58:21;;;;;;;4.90;1.90;;;3.20;99.90;;;;;;5016422;28;20034;-50
2022/01/20 12:00:59;;;;;;;2.65;1.42;;;3.20;99.90;;;;;;5012789;28;20081;-50
2022/01/20 12:03:24;;;;;;;7.97;1.80;;;3.20;99.90;;;;;;5017402;28;20128;-51
2022/01/20 12:06:12;;;;;;;6.97;1.60;;;3.20;99.90;;;;;;5022768;28;20492;-51
2022/01/20 12:08:50;;;;;;;2.65;2.10;;;3.10;99.90;;;;;;5049509;28;20041;-50
2022/01/20 12:11:16;;;;;;;;;;;3.10;99.90;;;;;;5015868;28;20060;-50
2022/01/20 12:13:50;;;;;;;3.05;1.52;;;3.10;99.90;;;;;;5017514;28;20443;-50
2022/01/20 12:16:22;;;;;;;1.38;1.27;;;3.10;99.90;;;;;;5019147;28;20034;-50
2022/01/20 12:18:56;;;;;;;1.75;1.65;;;3.00;99.90;;;;;;5016011;28;20048;-51
2022/01/20 12:21:22;;;;;;;1.65;1.50;;;2.80;99.90;;;;;;5016586;28;20033;-50
2022/01/20 12:23:49;;;;;;;2.40;1.40;;;2.80;99.90;;;;;;5018218;28;20479;-49
2022/01/20 12:26:15;;;;;;;1.92;1.60;;;2.80;99.90;;;;;;5015105;28;20112;-50
2022/01/20 12:28:41;;;;;;;4.93;1.83;;;2.80;99.90;;;;;;5015626;28;20029;-50
2022/01/20 12:31:12;;;;;;;2.90;1.50;;;2.80;99.90;;;;;;5020338;28;20032;-50
2022/01/20 12:33:43;;;;;;;4.55;1.90;;;2.80;99.90;;;;;;5016052;28;20029;-51
2022/01/20 12:36:16;;;;;;;3.65;1.70;;;2.80;99.90;;;;;;5021412;28;20061;-51
2022/01/20 12:38:45;;;;;;;1.50;1.40;;;2.80;99.90;;;;;;5016833;28;20029;-50
2022/01/20 12:41:22;;;;;;;1.92;1.60;;;2.80;99.90;;;;;;5014513;28;20048;-50
2022/01/20 12:43:57;;;;;;;4.07;2.25;;;2.80;99.90;;;;;;5013800;28;20115;-51
2022/01/20 12:46:26;;;;;;;1.52;1.42;;;2.90;99.90;;;;;;5011306;28;20029;-51
2022/01/20 12:48:58;;;;;;;6.07;1.60;;;2.90;99.90;;;;;;5005236;28;20038;-50
2022/01/20 12:51:39;;;;;;;7.60;1.95;;;2.80;99.90;;;;;;5003095;28;20061;-50
2022/01/20 12:54:05;;;;;;;3.00;1.70;;;2.90;99.90;;;;;;5003812;28;20357;-51
2022/01/20 12:56:45;;;;;;;11.82;2.33;;;2.90;99.90;;;;;;4999707;28;20116;-51
2022/01/20 12:59:16;;;;;;;6.05;2.15;;;2.90;99.90;;;;;;5001818;28;20135;-51
2022/01/20 13:01:45;;;;;;;2.58;1.70;;;2.90;99.90;;;;;;5002689;28;20045;-51
2022/01/20 13:04:14;;;;;;;3.60;1.77;;;2.90;99.90;;;;;;5001650;28;20045;-50
2022/01/20 13:06:50;;;;;;;4.38;1.80;;;2.90;99.90;;;;;;5002376;28;20030;-50
2022/01/20 13:09:18;;;;;;;2.22;1.95;;;2.90;99.90;;;;;;5001188;28;20506;-50
2022/01/20 13:11:58;;;;;;;6.38;2.03;;;2.90;99.90;;;;;;5001398;28;20026;-51
2022/01/20 13:14:40;;;;;;;5.82;2.60;;;2.90;99.90;;;;;;5000238;28;20474;-50
2022/01/20 13:17:08;;;;;;;2.45;2.25;;;2.90;99.90;;;;;;5003420;28;20030;-51
2022/01/20 13:19:46;;;;;;;3.20;2.00;;;3.00;99.90;;;;;;5000219;28;20025;-51
2022/01/20 13:22:56;;;;;;;3.78;1.90;;;3.00;99.90;;;;;;4999858;28;20037;-50
2022/01/20 13:25:28;;;;;;;4.78;2.35;;;2.90;99.90;;;;;;4960654;28;20049;-51
2022/01/20 13:27:57;;;;;;;2.72;2.17;;;3.00;99.90;;;;;;4996495;28;20042;-50
2022/01/20 13:30:28;;;;;;;4.72;1.92;;;3.10;99.90;;;;;;5001306;28;20530;-50
2022/01/20 13:32:54;;;;;;;6.50;2.58;;;3.10;99.90;;;;;;5000051;28;20042;-50
2022/01/20 13:35:20;;;;;;;2.38;1.80;;;3.10;99.90;;;;;;5000957;28;20034;-50
2022/01/20 13:37:57;;;;;;;2.80;1.52;;;3.10;99.90;;;;;;5000543;28;20034;-50
2022/01/20 13:40:23;;;;;;;1.35;1.35;;;3.10;99.90;;;;;;4999411;28;20116;-50
2022/01/20 13:45:46;;;;;;;4.13;1.80;;;3.10;99.90;;;;;;4999407;28;20079;-50
2022/01/20 13:48:14;;;;;;;2.60;1.85;;;3.10;99.90;;;;;;5000604;28;20418;-49
2022/01/20 13:50:43;;;;;;;4.05;1.60;;;3.10;99.90;;;;;;4999559;28;20029;-50
2022/01/20 13:53:15;;;;;;;4.47;1.55;;;3.20;99.90;;;;;;4999387;28;20609;-50
2022/01/20 13:55:43;;;;;;;4.22;2.30;;;3.30;99.90;;;;;;5002975;28;20041;-49
2022/01/20 13:58:21;;;;;;;2.92;1.88;;;3.30;99.90;;;;;;5002347;28;20705;-50
2022/01/20 14:00:47;;;;;;;4.50;2.08;;;3.40;99.90;;;;;;4997784;28;20045;-50
2022/01/20 14:03:12;;;;;;;3.75;1.60;;;3.40;99.90;;;;;;5002012;28;20374;-50
2022/01/20 14:05:38;;;;;;;3.33;1.90;;;3.40;99.90;;;;;;4997045;28;20025;-50